Time;durP1;ratioP1;P1;durP2;ratioP2;P2;SDS_P1;SDS_P2;PMS_P1;PMS_P2;Temp;Humidity;BMP_temperature;BMP_pressure;BME280_temperature;BME280_humidity;BME280_pressure;Samples;Min_cycle;Max_cycle;Signal;HPM_P1;HPM_P2
2022/04/23 00:00:59;;;;;;;11.52;6.75;;;7.50;99.90;;;;;;5030215;28;20057;-55
2022/04/23 00:03:25;;;;;;;12.05;7.55;;;7.40;99.90;;;;;;5049247;28;20455;-55
2022/04/23 00:05:50;;;;;;;12.25;7.30;;;7.40;99.90;;;;;;5045481;28;20029;-54
2022/04/23 00:08:16;;;;;;;10.98;7.20;;;7.40;99.90;;;;;;5029617;28;20029;-55
2022/04/23 00:10:41;;;;;;;8.13;7.32;;;7.30;99.90;;;;;;5029574;28;20429;-53
2022/04/23 00:13:07;;;;;;;9.98;7.22;;;7.30;99.90;;;;;;5029308;28;20068;-55
2022/04/23 00:15:39;;;;;;;13.32;8.00;;;7.30;99.90;;;;;;5035021;28;20032;-55
2022/04/23 00:18:10;;;;;;;12.73;8.00;;;7.20;99.90;;;;;;5049347;28;20086;-54
2022/04/23 00:20:36;;;;;;;9.32;7.18;;;7.20;99.90;;;;;;5049332;28;20403;-54
2022/04/23 00:23:06;;;;;;;10.10;7.63;;;7.20;99.90;;;;;;5031710;28;20022;-53
2022/04/23 00:25:35;;;;;;;13.15;8.63;;;7.10;99.90;;;;;;5035826;28;20570;-54
2022/04/23 00:28:01;;;;;;;11.45;9.13;;;7.10;99.90;;;;;;5042045;28;20616;-52
2022/04/23 00:30:26;;;;;;;15.82;8.80;;;7.10;99.90;;;;;;5048655;28;20056;-56
2022/04/23 00:32:52;;;;;;;11.35;8.15;;;7.10;99.90;;;;;;5048840;28;20032;-57
2022/04/23 00:35:18;;;;;;;12.55;8.65;;;7.00;99.90;;;;;;5033257;28;20029;-56
2022/04/23 00:37:45;;;;;;;10.38;7.97;;;7.00;99.90;;;;;;5029211;28;20021;-55
2022/04/23 00:40:18;;;;;;;10.18;8.98;;;7.00;99.90;;;;;;5046468;28;20027;-52
2022/04/23 00:42:52;;;;;;;16.27;10.23;;;7.00;99.90;;;;;;5048841;28;20052;-51
2022/04/23 00:45:28;;;;;;;12.68;9.35;;;6.90;99.90;;;;;;5048620;28;20373;-53
2022/04/23 00:47:54;;;;;;;15.13;9.23;;;6.90;99.90;;;;;;5048073;28;20028;-56
2022/04/23 00:50:23;;;;;;;13.68;9.25;;;6.90;99.90;;;;;;5049048;28;20579;-53
2022/04/23 00:53:02;;;;;;;15.88;9.90;;;6.90;99.90;;;;;;5010369;28;20029;-53
2022/04/23 00:55:28;;;;;;;14.90;10.15;;;6.90;99.90;;;;;;5037379;28;20082;-53
2022/04/23 00:57:56;;;;;;;19.67;10.13;;;6.80;99.90;;;;;;5035814;28;20132;-53
2022/04/23 01:00:21;;;;;;;15.05;9.48;;;6.80;99.90;;;;;;5027729;28;20040;-56
2022/04/23 01:02:47;;;;;;;16.38;10.38;;;6.80;99.90;;;;;;5025986;28;20033;-53
2022/04/23 01:05:14;;;;;;;9.75;8.73;;;6.70;99.90;;;;;;5028026;28;20159;-55
2022/04/23 01:07:43;;;;;;;14.23;9.80;;;6.70;99.90;;;;;;5028807;28;20437;-56
2022/04/23 01:10:10;;;;;;;17.42;10.77;;;6.70;99.90;;;;;;5030149;28;20030;-54
2022/04/23 01:12:36;;;;;;;19.88;10.15;;;6.70;99.90;;;;;;5048509;28;20405;-57
2022/04/23 01:15:08;;;;;;;15.13;11.02;;;6.70;99.90;;;;;;5048024;28;20110;-50
2022/04/23 01:17:34;;;;;;;15.40;10.95;;;6.60;99.90;;;;;;5048341;28;20704;-50
2022/04/23 01:20:14;;;;;;;15.32;10.10;;;6.60;99.90;;;;;;5048384;28;20377;-53
2022/04/23 01:22:42;;;;;;;13.55;10.38;;;6.50;99.90;;;;;;5045800;28;20036;-54
2022/04/23 01:25:10;;;;;;;14.63;9.98;;;6.50;99.90;;;;;;5028553;28;20033;-54
2022/04/23 01:27:37;;;;;;;14.95;10.55;;;6.50;99.90;;;;;;5028572;28;20049;-53
2022/04/23 01:30:04;;;;;;;15.68;9.68;;;6.50;99.90;;;;;;5028679;28;20083;-53
2022/04/23 01:32:30;;;;;;;15.60;11.10;;;6.50;99.90;;;;;;5023545;28;20021;-54
2022/04/23 01:34:56;;;;;;;14.15;11.07;;;6.40;99.90;;;;;;5043523;28;20210;-52
2022/04/23 01:37:21;;;;;;;12.25;10.77;;;6.40;99.90;;;;;;5028951;28;20029;-54
2022/04/23 01:39:48;;;;;;;19.00;10.88;;;6.30;99.90;;;;;;5034150;28;20029;-53
2022/04/23 01:42:17;;;;;;;18.13;11.15;;;6.40;99.90;;;;;;5051807;28;20115;-54
2022/04/23 01:44:44;;;;;;;17.73;13.00;;;6.30;99.90;;;;;;5051721;28;20032;-55
2022/04/23 01:47:10;;;;;;;19.23;12.93;;;6.30;99.90;;;;;;5051852;28;20022;-53
2022/04/23 01:49:35;;;;;;;18.30;13.10;;;6.30;99.90;;;;;;5051844;28;20083;-56
2022/04/23 01:52:01;;;;;;;16.92;11.52;;;6.30;99.90;;;;;;5036446;28;20056;-58
2022/04/23 01:54:26;;;;;;;18.95;12.75;;;6.30;99.90;;;;;;5014355;28;20049;-52
2022/04/23 01:56:52;;;;;;;21.85;12.45;;;6.30;99.90;;;;;;5033211;28;20037;-52
2022/04/23 01:59:17;;;;;;;18.60;13.30;;;6.20;99.90;;;;;;5032119;28;20034;-55
2022/04/23 02:01:43;;;;;;;22.05;13.20;;;6.20;99.90;;;;;;5031575;28;20033;-55
2022/04/23 02:04:09;;;;;;;23.42;14.07;;;6.20;99.90;;;;;;5031881;28;20056;-54
2022/04/23 02:06:35;;;;;;;17.33;14.15;;;6.20;99.90;;;;;;5036479;28;20033;-55
2022/04/23 02:09:03;;;;;;;19.40;12.25;;;6.20;99.90;;;;;;5039294;28;20029;-54
2022/04/23 02:11:29;;;;;;;20.60;12.80;;;6.20;99.90;;;;;;5034315;28;20093;-55
2022/04/23 02:13:54;;;;;;;20.85;14.25;;;6.10;99.90;;;;;;5032035;28;20117;-56
2022/04/23 02:16:20;;;;;;;19.85;14.45;;;6.10;99.90;;;;;;5031802;28;20108;-50
2022/04/23 02:18:46;;;;;;;22.10;14.07;;;6.00;99.90;;;;;;5031782;28;20021;-52
2022/04/23 02:21:12;;;;;;;20.33;14.27;;;6.00;99.90;;;;;;5031630;28;20037;-57
2022/04/23 02:23:37;;;;;;;23.23;14.82;;;6.00;99.90;;;;;;5038178;28;20377;-53
2022/04/23 02:26:05;;;;;;;20.55;14.02;;;6.00;99.90;;;;;;5051338;28;20028;-52
2022/04/23 02:28:31;;;;;;;20.95;15.18;;;6.00;99.90;;;;;;5026881;28;20021;-52
2022/04/23 02:30:56;;;;;;;19.95;13.80;;;6.00;99.90;;;;;;5032801;28;20033;-55
2022/04/23 02:33:22;;;;;;;21.23;14.48;;;5.90;99.90;;;;;;5046212;28;20035;-54
2022/04/23 02:35:50;;;;;;;23.15;14.98;;;5.90;99.90;;;;;;5031450;28;20075;-56
2022/04/23 02:38:17;;;;;;;23.73;14.18;;;5.80;99.90;;;;;;5031361;28;20029;-54
2022/04/23 02:40:43;;;;;;;23.90;15.35;;;5.80;99.90;;;;;;5031266;28;20172;-53
2022/04/23 02:43:12;;;;;;;20.83;15.35;;;5.80;99.90;;;;;;5042814;28;20037;-53
2022/04/23 02:45:38;;;;;;;22.02;15.23;;;5.70;99.90;;;;;;5050910;28;20033;-53
2022/04/23 02:48:04;;;;;;;22.30;15.63;;;5.70;99.90;;;;;;5050111;28;20037;-53
2022/04/23 02:50:32;;;;;;;23.90;16.27;;;5.70;99.90;;;;;;5050680;28;20029;-54
2022/04/23 02:52:59;;;;;;;23.45;15.77;;;5.70;99.90;;;;;;5032010;28;20026;-54
2022/04/23 02:55:30;;;;;;;21.65;15.52;;;5.70;99.90;;;;;;5030979;28;20119;-54
2022/04/23 02:58:00;;;;;;;22.13;16.13;;;5.70;99.90;;;;;;5048972;28;20033;-56
2022/04/23 03:00:25;;;;;;;22.88;16.42;;;5.70;99.90;;;;;;5034683;28;20032;-50
2022/04/23 03:02:52;;;;;;;26.15;17.48;;;5.70;99.90;;;;;;5030666;28;20112;-56
2022/04/23 03:05:18;;;;;;;21.42;16.77;;;5.60;99.90;;;;;;5013064;28;20033;-51
2022/04/23 03:07:45;;;;;;;22.88;15.85;;;5.60;99.90;;;;;;5038091;28;20111;-55
2022/04/23 03:10:13;;;;;;;23.42;16.88;;;5.60;99.90;;;;;;5050528;28;20051;-52
2022/04/23 03:12:39;;;;;;;23.35;15.48;;;5.60;99.90;;;;;;5050289;28;20028;-53
2022/04/23 03:15:07;;;;;;;21.13;15.70;;;5.60;99.90;;;;;;5048937;28;20025;-56
2022/04/23 03:17:33;;;;;;;27.67;16.85;;;5.60;99.90;;;;;;5050520;28;20598;-50
2022/04/23 03:19:58;;;;;;;24.88;17.27;;;5.60;99.90;;;;;;5039781;28;20049;-54
2022/04/23 03:22:24;;;;;;;25.42;17.30;;;5.60;99.90;;;;;;5030221;28;20056;-54
2022/04/23 03:24:50;;;;;;;26.30;17.00;;;5.60;99.90;;;;;;5030301;28;20038;-53
2022/04/23 03:27:16;;;;;;;27.25;17.58;;;5.60;99.90;;;;;;5030645;28;20485;-54
2022/04/23 03:29:41;;;;;;;26.77;17.38;;;5.50;99.90;;;;;;5031450;28;20509;-50
2022/04/23 03:32:07;;;;;;;23.48;17.08;;;5.50;99.90;;;;;;5030134;28;20467;-54
2022/04/23 03:34:33;;;;;;;24.40;17.00;;;5.50;99.90;;;;;;5030217;28;20059;-56
2022/04/23 03:36:59;;;;;;;22.50;16.52;;;5.50;99.90;;;;;;5030155;28;20524;-52
2022/04/23 03:39:24;;;;;;;25.50;17.13;;;5.40;99.90;;;;;;5030673;28;20489;-50
2022/04/23 03:41:50;;;;;;;29.00;18.60;;;5.40;99.90;;;;;;5029875;28;20037;-54
2022/04/23 03:44:16;;;;;;;25.98;18.38;;;5.40;99.90;;;;;;5043764;28;20084;-54
2022/04/23 03:46:41;;;;;;;29.70;18.58;;;5.40;99.90;;;;;;5032091;28;20473;-51
2022/04/23 03:49:09;;;;;;;23.38;17.23;;;5.40;99.90;;;;;;5030231;28;20032;-51
2022/04/23 03:51:35;;;;;;;29.33;18.67;;;5.30;99.90;;;;;;5030075;28;20029;-52
2022/04/23 03:54:01;;;;;;;28.15;19.00;;;5.30;99.90;;;;;;5031047;28;20037;-54
2022/04/23 03:56:27;;;;;;;27.67;17.85;;;5.30;99.90;;;;;;5030061;28;20026;-56
2022/04/23 03:58:54;;;;;;;23.17;17.88;;;5.30;99.90;;;;;;5029844;28;20044;-56
2022/04/23 04:01:19;;;;;;;26.10;18.77;;;5.20;99.90;;;;;;5028768;28;20087;-56
2022/04/23 04:03:45;;;;;;;29.58;19.95;;;5.20;99.90;;;;;;5029559;28;20033;-53
2022/04/23 04:06:10;;;;;;;27.25;19.02;;;5.20;99.90;;;;;;5039819;28;20033;-55
2022/04/23 04:08:36;;;;;;;27.83;19.30;;;5.20;99.90;;;;;;5031607;28;20044;-51
2022/04/23 04:11:02;;;;;;;29.42;20.55;;;5.20;99.90;;;;;;5029789;28;20515;-52
2022/04/23 04:13:28;;;;;;;29.17;20.20;;;5.20;99.90;;;;;;5027978;28;20065;-53
2022/04/23 04:15:54;;;;;;;29.83;19.95;;;5.20;99.90;;;;;;5029514;28;20029;-53
2022/04/23 04:18:21;;;;;;;30.67;21.40;;;5.20;99.90;;;;;;5029688;28;20116;-53
2022/04/23 04:20:48;;;;;;;31.85;22.15;;;5.20;99.90;;;;;;5029535;28;20044;-53
2022/04/23 04:23:15;;;;;;;31.23;22.08;;;5.20;99.90;;;;;;5029112;28;20114;-54
2022/04/23 04:25:41;;;;;;;32.85;22.13;;;5.20;99.90;;;;;;5029640;28;20033;-54
2022/04/23 04:28:07;;;;;;;36.70;22.08;;;5.20;99.90;;;;;;5029552;28;20045;-55
2022/04/23 04:31:47;;;;;;;29.05;22.25;;;5.20;99.90;;;;;;5011620;28;20496;-54
2022/04/23 04:33:19;;;;;;;32.92;21.33;;;5.20;99.90;;;;;;5028875;28;20048;-56
2022/04/23 04:35:44;;;;;;;30.92;21.50;;;5.20;99.90;;;;;;5028752;28;20033;-56
2022/04/23 04:38:10;;;;;;;31.70;22.02;;;5.20;99.90;;;;;;5029433;28;20026;-53
2022/04/23 04:40:35;;;;;;;35.63;22.73;;;5.20;99.90;;;;;;5029451;28;20600;-53
2022/04/23 04:43:01;;;;;;;30.15;22.92;;;5.20;99.90;;;;;;5030202;28;20637;-57
2022/04/23 04:45:27;;;;;;;34.00;22.05;;;5.30;99.90;;;;;;5011186;28;20034;-55
2022/04/23 04:47:52;;;;;;;28.70;22.42;;;5.30;99.90;;;;;;5028999;28;20425;-51
2022/04/23 04:50:18;;;;;;;32.83;22.15;;;5.20;99.90;;;;;;5029597;28;20392;-56
2022/04/23 04:52:44;;;;;;;28.27;20.58;;;5.20;99.90;;;;;;5028966;28;20088;-55
2022/04/23 04:55:10;;;;;;;31.83;21.33;;;5.20;99.90;;;;;;5029333;28;20439;-54
2022/04/23 04:57:36;;;;;;;28.83;20.33;;;5.20;99.90;;;;;;5029290;28;20029;-53
2022/04/23 05:00:02;;;;;;;29.25;21.45;;;5.30;99.90;;;;;;5028856;28;20030;-53
2022/04/23 05:02:28;;;;;;;30.05;21.52;;;5.30;99.90;;;;;;5029057;28;20734;-54
2022/04/23 05:04:53;;;;;;;33.90;20.70;;;5.40;99.90;;;;;;5011443;28;20065;-52
2022/04/23 05:07:19;;;;;;;33.70;21.70;;;5.40;99.90;;;;;;5029211;28;20037;-55
2022/04/23 05:09:45;;;;;;;28.90;21.38;;;5.40;99.90;;;;;;5016552;28;20025;-56
2022/04/23 05:12:10;;;;;;;29.73;21.25;;;5.50;99.90;;;;;;5048340;28;20501;-58
2022/04/23 05:14:36;;;;;;;34.05;21.30;;;5.50;99.90;;;;;;5042937;28;20039;-54
2022/04/23 05:17:02;;;;;;;27.67;20.30;;;5.50;99.90;;;;;;5039579;28;20033;-52
2022/04/23 05:19:27;;;;;;;26.67;19.95;;;5.50;99.90;;;;;;5052959;28;20420;-53
2022/04/23 05:21:53;;;;;;;26.15;18.25;;;5.60;99.90;;;;;;5052128;28;20040;-57
2022/04/23 05:24:18;;;;;;;27.55;19.52;;;5.60;99.90;;;;;;5052560;28;20033;-52
2022/04/23 05:26:44;;;;;;;32.08;19.55;;;5.70;99.90;;;;;;5052534;28;20025;-54
2022/04/23 05:29:09;;;;;;;29.25;19.50;;;5.70;99.90;;;;;;5051911;28;20033;-52
2022/04/23 05:31:38;;;;;;;27.25;19.13;;;5.80;99.90;;;;;;5052313;28;20033;-54
2022/04/23 05:34:04;;;;;;;26.17;19.63;;;5.80;99.90;;;;;;5052489;28;20554;-55
2022/04/23 05:36:30;;;;;;;27.33;18.88;;;5.90;99.90;;;;;;5052316;28;20071;-56
2022/04/23 05:38:56;;;;;;;29.55;19.65;;;5.90;99.90;;;;;;5033180;28;20065;-53
2022/04/23 05:41:22;;;;;;;26.67;20.60;;;6.00;99.90;;;;;;5038996;28;20506;-53
2022/04/23 05:43:48;;;;;;;24.10;18.20;;;6.00;99.90;;;;;;5034516;28;20037;-54
2022/04/23 05:46:16;;;;;;;32.22;19.40;;;6.00;99.90;;;;;;5033657;28;20057;-52
2022/04/23 05:48:42;;;;;;;26.55;17.50;;;6.10;99.90;;;;;;5033991;28;20733;-52
2022/04/23 05:51:07;;;;;;;26.77;19.10;;;6.20;99.90;;;;;;5044173;28;20088;-56
2022/04/23 05:53:33;;;;;;;24.02;17.30;;;6.20;99.90;;;;;;5033101;28;20125;-53
2022/04/23 05:55:58;;;;;;;27.60;17.92;;;6.30;99.90;;;;;;5032333;28;20044;-53
2022/04/23 05:58:24;;;;;;;23.42;16.85;;;6.30;99.90;;;;;;5031954;28;20120;-55
2022/04/23 06:00:51;;;;;;;26.17;18.33;;;6.40;99.90;;;;;;5014607;28;20043;-56
2022/04/23 06:03:17;;;;;;;22.17;16.45;;;6.40;99.90;;;;;;5043189;28;20087;-53
2022/04/23 06:05:42;;;;;;;23.05;16.65;;;6.50;99.90;;;;;;5032306;28;20034;-57
2022/04/23 06:08:08;;;;;;;22.58;17.77;;;6.60;99.90;;;;;;5035781;28;20021;-53
2022/04/23 06:10:34;;;;;;;23.60;16.40;;;6.60;99.90;;;;;;5031871;28;20033;-54
2022/04/23 06:13:00;;;;;;;22.25;16.67;;;6.70;99.90;;;;;;5031365;28;20029;-53
2022/04/23 06:15:26;;;;;;;22.25;16.52;;;6.80;99.90;;;;;;5014142;28;20063;-54
2022/04/23 06:17:51;;;;;;;22.10;15.95;;;6.90;99.90;;;;;;5031990;28;20025;-52
2022/04/23 06:20:17;;;;;;;20.73;16.02;;;7.00;99.90;;;;;;5031973;28;20026;-53
2022/04/23 06:22:42;;;;;;;23.20;14.95;;;7.10;99.90;;;;;;5031618;28;20500;-52
2022/04/23 06:25:08;;;;;;;20.20;14.25;;;7.20;99.90;;;;;;5030357;28;20044;-56
2022/04/23 06:27:35;;;;;;;17.85;14.02;;;7.30;99.90;;;;;;5013703;28;20026;-56
2022/04/23 06:30:01;;;;;;;18.95;14.05;;;7.40;99.90;;;;;;5031297;28;20544;-50
2022/04/23 06:32:26;;;;;;;17.83;14.15;;;7.60;99.90;;;;;;5031244;28;20095;-52
2022/04/23 06:34:52;;;;;;;17.67;13.82;;;7.80;99.90;;;;;;5031369;28;20040;-54
2022/04/23 06:37:21;;;;;;;17.65;13.48;;;8.00;99.90;;;;;;5031595;28;20075;-52
2022/04/23 06:39:46;;;;;;;18.40;13.73;;;8.10;99.90;;;;;;5031625;28;20503;-57
2022/04/23 06:42:12;;;;;;;16.92;12.55;;;8.20;99.90;;;;;;5031646;28;20032;-54
2022/04/23 06:44:38;;;;;;;15.13;12.00;;;8.40;99.90;;;;;;5031289;28;20025;-51
2022/04/23 06:47:03;;;;;;;16.85;12.88;;;8.50;99.90;;;;;;5013488;28;20037;-53
2022/04/23 06:49:29;;;;;;;14.93;12.00;;;8.70;99.90;;;;;;5041609;28;20107;-54
2022/04/23 06:51:55;;;;;;;14.27;11.77;;;8.90;99.90;;;;;;5036209;28;20022;-53
2022/04/23 06:54:24;;;;;;;14.88;10.95;;;9.20;99.90;;;;;;5014436;28;20074;-50
2022/04/23 06:56:50;;;;;;;16.90;11.40;;;9.40;99.90;;;;;;5013274;28;20033;-55
2022/04/23 06:59:16;;;;;;;12.23;9.85;;;9.60;99.90;;;;;;5032268;28;20025;-49
2022/04/23 07:01:41;;;;;;;10.93;9.70;;;9.80;99.90;;;;;;5036151;28;20107;-50
2022/04/23 07:04:08;;;;;;;10.30;9.30;;;10.00;99.90;;;;;;5030612;28;20083;-51
2022/04/23 07:06:34;;;;;;;11.82;10.38;;;10.20;99.90;;;;;;5032019;28;20037;-52
2022/04/23 07:08:59;;;;;;;15.07;10.88;;;10.50;99.90;;;;;;5046235;28;20071;-51
2022/04/23 07:11:25;;;;;;;10.75;8.70;;;10.70;99.90;;;;;;5030630;28;20068;-52
2022/04/23 07:13:51;;;;;;;10.25;9.18;;;10.90;99.90;;;;;;5030468;28;20025;-53
2022/04/23 07:16:17;;;;;;;10.63;8.40;;;11.10;99.90;;;;;;5030874;28;20040;-53
2022/04/23 07:18:43;;;;;;;12.70;8.35;;;11.30;99.90;;;;;;5030601;28;20440;-52
2022/04/23 07:21:09;;;;;;;8.90;7.65;;;11.50;99.90;;;;;;5030534;28;20033;-53
2022/04/23 07:26:19;;;;;;;9.85;8.38;;;11.90;99.90;;;;;;5048872;28;20036;-52
2022/04/23 07:28:45;;;;;;;8.82;7.95;;;12.10;99.90;;;;;;5050276;28;20441;-52
2022/04/23 07:31:11;;;;;;;9.32;8.35;;;12.20;99.90;;;;;;5032525;28;20116;-52
2022/04/23 07:39:04;;;;;;;9.55;7.70;;;12.80;99.90;;;;;;5030718;28;20103;-55
2022/04/23 07:41:30;;;;;;;9.82;7.13;;;13.00;99.90;;;;;;5049747;28;20037;-53
2022/04/23 07:43:57;;;;;;;8.60;7.07;;;13.00;99.90;;;;;;5050048;28;20041;-52
2022/04/23 07:46:22;;;;;;;7.95;7.15;;;13.00;99.90;;;;;;5031568;28;20111;-50
2022/04/23 07:48:48;;;;;;;6.95;6.28;;;13.10;99.90;;;;;;5049974;28;20496;-51
2022/04/23 07:51:14;;;;;;;7.28;6.47;;;13.30;99.90;;;;;;5049366;28;20035;-51
2022/04/23 07:53:40;;;;;;;7.10;6.35;;;13.40;99.90;;;;;;5044596;28;20108;-54
2022/04/23 07:56:05;;;;;;;8.90;6.30;;;13.60;99.90;;;;;;5029903;28;20109;-51
2022/04/23 07:58:32;;;;;;;6.72;6.05;;;13.60;99.90;;;;;;5041319;28;20052;-51
2022/04/23 08:00:58;;;;;;;6.63;5.93;;;13.80;99.90;;;;;;5049986;28;20071;-49
2022/04/23 08:03:24;;;;;;;6.72;6.13;;;14.10;99.90;;;;;;5049422;28;20029;-54
2022/04/23 08:05:49;;;;;;;6.53;5.93;;;14.30;98.10;;;;;;5049559;28;20082;-52
2022/04/23 08:08:17;;;;;;;6.28;5.68;;;14.30;96.50;;;;;;5043515;28;20500;-50
2022/04/23 08:10:44;;;;;;;6.43;5.78;;;14.50;95.70;;;;;;5037465;28;20022;-55
2022/04/23 08:13:10;;;;;;;6.97;5.97;;;14.30;94.50;;;;;;5028643;28;20032;-49
2022/04/23 08:15:35;;;;;;;7.15;5.85;;;14.40;95.00;;;;;;5020108;28;20034;-50
2022/04/23 08:18:01;;;;;;;5.85;5.35;;;14.60;94.90;;;;;;5009960;28;20429;-55
2022/04/23 08:20:30;;;;;;;7.68;5.80;;;14.80;95.20;;;;;;5017465;28;20147;-49
2022/04/23 08:22:56;;;;;;;6.78;5.80;;;15.10;96.00;;;;;;5044256;28;20041;-50
2022/04/23 08:25:21;;;;;;;6.25;4.85;;;15.30;97.40;;;;;;5029261;28;20405;-53
2022/04/23 08:27:55;;;;;;;5.85;4.85;;;15.40;92.10;;;;;;5029207;28;20057;-54
2022/04/23 08:30:36;;;;;;;6.00;5.40;;;15.40;90.20;;;;;;5029464;28;20076;-52
2022/04/23 08:33:04;;;;;;;6.75;4.93;;;15.50;91.00;;;;;;5028898;28;20071;-50
2022/04/23 08:35:31;;;;;;;4.03;3.72;;;15.60;91.70;;;;;;5044056;28;20029;-49
2022/04/23 08:37:57;;;;;;;5.57;4.13;;;15.60;88.90;;;;;;5029453;28;20133;-48
2022/04/23 08:40:22;;;;;;;4.40;4.05;;;15.70;88.70;;;;;;5025010;28;20057;-51
2022/04/23 08:42:48;;;;;;;4.97;4.47;;;15.70;88.60;;;;;;5029291;28;20040;-50
2022/04/23 08:45:14;;;;;;;4.07;3.67;;;15.80;87.70;;;;;;5014064;28;20644;-49
2022/04/23 08:47:45;;;;;;;8.05;4.95;;;16.00;88.10;;;;;;5011434;28;20014;-50
2022/04/23 08:50:11;;;;;;;4.53;4.13;;;16.10;85.30;;;;;;5016163;28;20122;-52
2022/04/23 08:52:42;;;;;;;4.28;3.88;;;16.20;83.90;;;;;;5011375;28;20511;-52
2022/04/23 08:55:14;;;;;;;5.75;4.28;;;16.20;81.80;;;;;;5014858;28;20088;-53
2022/04/23 08:57:41;;;;;;;4.70;3.83;;;16.30;83.00;;;;;;5011846;28;20036;-53
2022/04/23 09:00:08;;;;;;;4.22;3.92;;;16.50;82.80;;;;;;5015922;28;20034;-52
2022/04/23 09:02:35;;;;;;;4.25;3.83;;;16.70;82.50;;;;;;5011384;28;20037;-50
2022/04/23 09:05:01;;;;;;;4.07;3.72;;;16.90;81.60;;;;;;5016892;28;20033;-51
2022/04/23 09:07:29;;;;;;;4.25;3.85;;;16.90;79.00;;;;;;5014944;28;20478;-51
2022/04/23 09:09:57;;;;;;;4.10;3.72;;;16.90;77.80;;;;;;5015473;28;20494;-50
2022/04/23 09:12:24;;;;;;;4.72;4.30;;;16.90;78.10;;;;;;5011706;28;20073;-52
2022/04/23 09:14:51;;;;;;;4.35;3.95;;;16.90;81.10;;;;;;5014176;28;20034;-50
2022/04/23 09:25:44;;;;;;;4.65;4.25;;;17.30;76.10;;;;;;5028804;28;20076;-52
2022/04/23 09:28:21;;;;;;;4.30;3.90;;;17.40;76.70;;;;;;5015637;28;20501;-51
2022/04/23 09:30:51;;;;;;;4.80;4.40;;;17.50;75.90;;;;;;5009400;28;20045;-51
2022/04/23 09:33:18;;;;;;;4.22;3.83;;;17.50;74.40;;;;;;5008924;28;20033;-55
2022/04/23 09:36:04;;;;;;;3.67;3.38;;;17.40;70.60;;;;;;5018526;28;20072;-52
2022/04/23 09:38:30;;;;;;;3.90;3.55;;;17.30;72.60;;;;;;5018917;28;20030;-51
2022/04/23 09:40:57;;;;;;;3.55;3.25;;;17.60;73.50;;;;;;5018284;28;20034;-53
2022/04/23 09:43:30;;;;;;;3.95;3.65;;;17.60;74.50;;;;;;5025226;28;20029;-50
2022/04/23 09:46:01;;;;;;;4.15;3.70;;;17.70;71.40;;;;;;5040080;28;20496;-50
2022/04/23 09:48:27;;;;;;;3.72;3.42;;;17.60;72.70;;;;;;4993182;28;20034;-52
2022/04/23 09:50:52;;;;;;;4.32;3.53;;;17.60;70.10;;;;;;5009013;28;20022;-52
2022/04/23 09:53:20;;;;;;;4.03;3.28;;;17.70;72.60;;;;;;5026588;28;20545;-52
2022/04/23 09:55:48;;;;;;;3.50;3.25;;;17.80;69.20;;;;;;5028739;28;20489;-54
2022/04/23 09:58:15;;;;;;;3.40;3.10;;;18.00;69.70;;;;;;5030101;28;20049;-52
2022/04/23 10:00:43;;;;;;;3.90;3.60;;;18.20;71.20;;;;;;5030707;28;20029;-50
2022/04/23 10:03:09;;;;;;;4.50;3.50;;;18.50;70.90;;;;;;5032835;28;20033;-49
2022/04/23 10:05:42;;;;;;;3.53;3.22;;;18.60;70.20;;;;;;5047465;28;20052;-51
2022/04/23 10:08:16;;;;;;;3.60;3.30;;;18.50;70.10;;;;;;5032390;28;20510;-47
2022/04/23 10:10:59;;;;;;;5.65;3.72;;;18.40;69.00;;;;;;5030943;28;20024;-49
2022/04/23 10:13:28;;;;;;;3.80;3.50;;;18.30;68.60;;;;;;5046773;28;20555;-56
2022/04/23 10:15:55;;;;;;;3.15;2.95;;;18.00;66.70;;;;;;5044414;28;20696;-53
2022/04/23 10:18:21;;;;;;;3.38;3.10;;;18.00;66.50;;;;;;5051884;28;20071;-50
2022/04/23 10:20:56;;;;;;;4.35;3.55;;;18.00;67.40;;;;;;5033628;28;20121;-50
2022/04/23 10:23:25;;;;;;;4.20;3.80;;;18.00;68.80;;;;;;5051238;28;20029;-50
2022/04/23 10:26:15;;;;;;;3.53;3.22;;;18.10;70.50;;;;;;5049446;28;20104;-50
2022/04/23 10:28:48;;;;;;;4.00;3.20;;;18.30;69.80;;;;;;5051582;28;20029;-51
2022/04/23 10:31:15;;;;;;;3.78;3.47;;;18.20;65.70;;;;;;5036211;28;20080;-51
2022/04/23 10:33:54;;;;;;;4.10;3.60;;;17.90;67.10;;;;;;5046565;28;20029;-49
2022/04/23 10:36:22;;;;;;;4.07;3.67;;;17.90;68.60;;;;;;5031770;28;20119;-55
2022/04/23 10:38:53;;;;;;;4.63;4.22;;;18.00;68.20;;;;;;5031592;28;20026;-53
2022/04/23 10:41:24;;;;;;;5.15;3.83;;;18.00;66.10;;;;;;5036761;28;20029;-53
2022/04/23 10:43:52;;;;;;;3.58;3.28;;;17.90;66.00;;;;;;5031424;28;20031;-50
2022/04/23 10:46:44;;;;;;;5.28;4.32;;;17.70;68.00;;;;;;5032046;28;20038;-51
2022/04/23 10:49:27;;;;;;;5.13;4.00;;;17.70;68.10;;;;;;5006783;28;20033;-49
2022/04/23 10:51:55;;;;;;;3.78;3.47;;;17.60;66.20;;;;;;5031376;28;20053;-54
2022/04/23 10:54:41;;;;;;;4.00;3.70;;;17.30;68.30;;;;;;5030086;28;20025;-53
2022/04/23 10:57:11;;;;;;;4.90;3.93;;;17.10;67.70;;;;;;5031234;28;20029;-53
2022/04/23 10:59:40;;;;;;;4.47;4.07;;;16.90;68.20;;;;;;5031876;28;20781;-52
2022/04/23 11:02:29;;;;;;;4.43;3.95;;;16.70;68.40;;;;;;5050653;28;20032;-55
2022/04/23 11:14:04;;;;;;;3.65;3.35;;;16.50;69.70;;;;;;5017522;28;20079;-50
2022/04/23 11:16:30;;;;;;;4.57;3.13;;;16.80;70.80;;;;;;5030983;28;20022;-50
2022/04/23 11:19:01;;;;;;;3.90;3.55;;;17.00;68.00;;;;;;5034591;28;20553;-53
2022/04/23 11:21:27;;;;;;;3.78;3.47;;;17.20;65.00;;;;;;5030420;28;20445;-54
2022/04/23 11:23:56;;;;;;;3.63;3.33;;;17.30;65.90;;;;;;5030522;28;20029;-52
2022/04/23 11:26:38;;;;;;;3.22;2.92;;;17.60;65.30;;;;;;5030612;28;20036;-50
2022/04/23 11:29:04;;;;;;;4.22;3.10;;;17.80;66.90;;;;;;5031072;28;20101;-55
2022/04/23 11:31:30;;;;;;;4.15;3.80;;;17.80;63.70;;;;;;5030413;28;20121;-54
2022/04/23 11:33:57;;;;;;;4.50;3.63;;;17.90;65.40;;;;;;5030472;28;20038;-53
2022/04/23 11:36:27;;;;;;;4.65;4.07;;;17.80;62.40;;;;;;5030529;28;20029;-55
2022/04/23 11:38:54;;;;;;;3.75;3.45;;;17.70;63.30;;;;;;5029840;28;20026;-52
2022/04/23 11:41:29;;;;;;;6.47;5.20;;;17.70;64.80;;;;;;5030309;28;20499;-47
2022/04/23 11:43:55;;;;;;;7.35;6.45;;;17.90;68.70;;;;;;5030219;28;20021;-50
2022/04/23 11:46:20;;;;;;;6.60;6.00;;;17.70;69.10;;;;;;5030072;28;20029;-51
2022/04/23 11:48:48;;;;;;;7.47;6.78;;;17.40;69.50;;;;;;5030179;28;20431;-51
2022/04/23 11:51:21;;;;;;;7.30;5.72;;;16.90;72.60;;;;;;5030110;28;20032;-51
2022/04/23 11:53:48;;;;;;;6.88;6.10;;;17.10;74.50;;;;;;5029823;28;20079;-48
2022/04/23 11:56:28;;;;;;;7.28;6.60;;;17.30;73.00;;;;;;5030499;28;20131;-53
2022/04/23 11:58:56;;;;;;;6.20;5.60;;;17.40;71.20;;;;;;5030182;28;20044;-54
2022/04/23 12:01:24;;;;;;;7.40;6.35;;;17.20;71.20;;;;;;5029586;28;20561;-52
2022/04/23 12:03:54;;;;;;;8.63;6.80;;;17.10;72.40;;;;;;5029785;28;20069;-52
2022/04/23 12:06:21;;;;;;;7.03;6.35;;;16.90;74.30;;;;;;5030125;28;20076;-52
2022/04/23 12:08:46;;;;;;;7.78;6.97;;;16.90;74.40;;;;;;5029934;28;20116;-51
2022/04/23 12:11:23;;;;;;;8.13;6.90;;;16.90;74.50;;;;;;5029902;28;20101;-56
2022/04/23 12:13:48;;;;;;;7.13;6.53;;;17.00;73.30;;;;;;5041694;28;20392;-49
2022/04/23 12:16:34;;;;;;;6.43;5.93;;;16.80;74.50;;;;;;5029560;28;20418;-48
2022/04/23 12:19:05;;;;;;;6.88;6.20;;;16.90;75.20;;;;;;5029708;28;20505;-53
2022/04/23 12:21:32;;;;;;;7.30;6.60;;;17.10;72.90;;;;;;5029409;28;20025;-53
2022/04/23 12:23:58;;;;;;;7.53;6.82;;;17.10;72.50;;;;;;5048671;28;20021;-52
2022/04/23 12:26:24;;;;;;;7.60;6.82;;;16.70;72.50;;;;;;5049286;28;20044;-55
2022/04/23 12:42:25;;;;;;;6.45;5.82;;;17.00;74.30;;;;;;5029179;28;20029;-50
2022/04/23 12:44:53;;;;;;;10.27;6.38;;;17.10;73.70;;;;;;5028971;28;20021;-51
2022/04/23 12:47:33;;;;;;;6.85;6.25;;;17.20;72.80;;;;;;5029515;28;20064;-49
2022/04/23 12:50:05;;;;;;;6.80;6.13;;;17.30;73.70;;;;;;5029279;28;20159;-51
2022/04/23 12:52:41;;;;;;;7.30;6.60;;;17.50;73.70;;;;;;5029039;28;20045;-52
2022/04/23 12:55:22;;;;;;;9.52;6.50;;;17.40;71.90;;;;;;5028827;28;20048;-51
2022/04/23 12:57:53;;;;;;;9.15;6.65;;;17.60;72.80;;;;;;5044683;28;20044;-52
2022/04/23 13:00:21;;;;;;;7.40;6.50;;;17.60;71.70;;;;;;5029175;28;20454;-57
2022/04/23 13:02:59;;;;;;;7.32;6.63;;;17.50;72.00;;;;;;5028910;28;20021;-51
2022/04/23 13:05:26;;;;;;;7.78;7.05;;;17.40;71.90;;;;;;5029285;28;20029;-54
2022/04/23 13:10:37;;;;;;;9.40;6.95;;;17.20;72.20;;;;;;5042143;28;20404;-51
2022/04/23 13:13:03;;;;;;;8.43;7.63;;;17.20;73.20;;;;;;5042660;28;20021;-54
2022/04/23 13:15:30;;;;;;;7.80;7.07;;;17.30;72.80;;;;;;5047827;28;20662;-54
2022/04/23 13:17:55;;;;;;;6.38;5.80;;;17.40;72.50;;;;;;5029073;28;20071;-51
2022/04/23 13:20:21;;;;;;;6.97;6.28;;;17.40;74.50;;;;;;5028718;28;20022;-52
2022/04/23 13:22:48;;;;;;;11.07;7.63;;;17.60;74.00;;;;;;5028857;28;20053;-53
2022/04/23 13:25:15;;;;;;;8.40;7.57;;;17.80;72.00;;;;;;5029259;28;20492;-52
2022/04/23 13:27:41;;;;;;;7.57;6.60;;;17.60;70.30;;;;;;5029048;28;20034;-58